MST,Max TemperatureF,Mean TemperatureF,Min TemperatureF,Max Dew PointF,MeanDew PointF,Min DewpointF,Max Humidity, Mean Humidity, Min Humidity, Max Sea Level PressureIn, Mean Sea Level PressureIn, Min Sea Level PressureIn, Max VisibilityMiles, Mean VisibilityMiles, Min VisibilityMiles, Max Wind SpeedMPH, Mean Wind SpeedMPH, Max Gust SpeedMPH,PrecipitationIn, CloudCover, Events, WindDirDegrees
2013-1-1,32,23,13,29,21,7,92,78,63,30.32,30.18,30.06,10,6,0,22,13,25,0.18,6,Fog-Snow,246
2013-1-2,38,23,8,11,7,2,73,53,32,30.48,30.39,30.28,10,10,10,22,13,25,0.00,0,,229
2013-1-3,48,31,14,19,10,3,71,48,26,30.25,30.16,30.09,10,10,10,16,11,23,0.00,0,,252
2013-1-4,40,27,14,27,17,4,84,59,34,30.22,30.10,29.95,10,10,10,26,15,32,0.00,1,,239
2013-1-5,31,17,2,22,13,2,96,82,68,30.33,30.23,30.12,10,10,9,17,9,22,0.00,0,,223
2013-1-6,41,22,3,27,17,1,91,71,51,30.09,29.91,29.83,10,10,7,38,15,45,T,0,Snow,245
2013-1-7,39,29,18,29,21,13,84,70,56,29.94,29.77,29.55,10,10,10,23,9,29,0.00,2,,232
2013-1-8,36,29,21,29,24,15,85,71,56,30.03,29.85,29.60,10,8,1,29,10,37,0.01,6,Snow,300
2013-1-9,51,34,17,33,26,14,84,68,52,29.88,29.74,29.59,10,10,10,30,12,37,0.00,0,,205
2013-1-10,37,24,11,28,16,7,92,81,70,30.01,29.80,29.60,10,3,0,21,12,26,0.52,7,Fog-Snow,349
2013-1-11,11,2,-7,7,1,-11,83,78,73,30.36,30.11,29.88,10,4,1,21,10,25,0.15,7,Snow,2
2013-1-12,7,-5,-18,0,-8,-17,92,82,72,30.37,30.28,30.09,10,10,2,17,9,20,T,4,,228
2013-1-13,16,10,4,10,6,1,86,80,73,30.37,30.23,30.11,10,5,1,22,12,24,T,8,Snow,230
2013-1-14,31,20,8,27,14,6,88,78,67,30.27,30.06,29.86,10,8,1,28,18,33,0.01,7,Snow,223
2013-1-15,39,35,30,28,26,24,85,75,64,30.06,30.00,29.89,10,9,5,33,22,38,T,8,Snow,233
2013-1-16,38,26,14,27,22,12,88,74,59,30.37,30.18,29.98,10,10,10,25,11,30,0.00,1,,242
2013-1-17,43,28,12,28,22,10,92,73,53,30.37,30.15,29.95,10,10,10,28,17,35,0.00,0,,229
2013-1-18,41,35,28,28,25,22,75,65,54,30.01,29.90,29.84,10,10,10,25,16,37,0.00,1,,228
2013-1-19,31,24,16,21,17,12,84,76,68,30.42,30.29,30.06,10,10,10,16,6,21,0.00,5,,343
2013-1-20,20,12,4,13,2,-2,83,75,67,30.74,30.62,30.36,10,8,2,21,6,24,0.01,8,Snow,26
2013-1-21,12,9,5,6,3,-1,83,77,70,30.50,30.32,30.19,10,10,10,13,8,15,0.00,7,,67
2013-1-22,18,11,3,11,6,0,88,78,67,30.28,30.22,30.19,10,10,10,17,6,20,0.00,1,,331
2013-1-23,18,14,9,10,7,5,84,79,73,30.36,30.22,29.99,10,10,10,22,13,25,0.00,1,,76
2013-1-24,37,24,10,25,15,7,88,74,59,30.16,30.05,29.94,10,10,10,18,6,21,0.00,1,,258
2013-1-25,40,26,11,30,23,9,92,78,64,30.09,29.99,29.87,10,10,9,21,8,24,0.00,0,,237
2013-1-26,38,30,21,32,28,18,92,81,70,29.90,29.81,29.73,10,7,1,13,4,15,0.08,7,Snow,90
2013-1-27,36,28,20,30,24,16,92,81,69,29.86,29.83,29.76,10,10,10,17,9,21,0.00,2,,238
2013-1-28,35,26,16,25,17,12,81,71,61,29.87,29.81,29.74,10,10,10,21,10,24,0.00,1,,233
2013-1-29,25,9,-8,17,-6,-13,84,72,59,30.46,30.19,29.75,10,5,0,31,13,38,0.01,7,Snow,320
2013-1-30,9,3,-3,1,-5,-9,83,76,69,30.41,30.17,29.93,10,6,1,21,9,24,0.03,8,Snow,336
2013-1-31,10,3,-4,4,-5,-10,83,77,71,30.44,30.26,30.10,10,5,1,10,4,12,0.10,8,Snow,343